Search for airport 
image banner adimage banner adimage banner ad
image banner ad

NV96 - Rolling Thunder

Located in Sparks, United States

ICAO - NV96, IATA -

Data provided by Airmate  

General information

Coordinates: N39°49'31" W119°39'16"
Elevation is 4240 feet MSL.
 
View others Airports in Nevada

Operational data

Special qualification required
Current time UTC:
Current local time:
Weather at : KRTS - Reno/Stead ( 26 km )
METAR: KRTS 092235Z AUTO 18004KT 10SM CLR 19/M10 A2999 RMK AO2
View NOTAMs / SUP AIP / TFR affecting this airport [VIEW]
Communications frequencies: [VIEW]

Runways:

RWY identifierQFULength (ft)Width (ft)SurfaceLDA (ft)
05200040EARTH
23200040EARTH

Airport contact information

Address: Sparks United States

Satellite view of NV96